Terminal Aerodrome Forecast
Issued by NWS Paducah, KY

Home | Current Version | Previous Version | Text Only | Print | Product List | Glossary On
Versions: 1 2 3 4 5 6 7 8 9 10 11 12 13 14 15 16 17 18 19 20 21 22 23 24
000
FTUS43 KPAH 182057 AAA
TAFEVV
TAF AMD
KEVV 182057Z 1821/1918 VRB03KT P6SM SCT020
     FM182300 VRB03KT P6SM BKN020
     FM190800 VRB03KT P6SM OVC015
     FM191300 10004KT P6SM VCSH OVC015
     FM191600 10006KT 3SM SHRA BR OVC009=

USA.gov is the U.S. government's official web portal to all federal, state and local government web resources and services.